createdAt,value
2018-04-11T00:01:00.203Z,99996.91
2018-04-11T00:03:26.167Z,99992.86
2018-04-11T00:05:52.104Z,99992.38
2018-04-11T00:08:18.069Z,99998.79
2018-04-11T00:10:44.051Z,100001.69
2018-04-11T00:13:09.989Z,100011.27
2018-04-11T00:15:35.954Z,100005.73
2018-04-11T00:18:01.959Z,100006.58
2018-04-11T00:20:27.894Z,100005.58
2018-04-11T00:22:53.838Z,100019.13
2018-04-11T00:25:19.802Z,100001.70
2018-04-11T00:27:45.824Z,100003.91
2018-04-11T00:30:11.764Z,100001.62
2018-04-11T00:32:37.728Z,99997.91
2018-04-11T00:35:03.753Z,99998.56
2018-04-11T00:37:29.692Z,100003.19
2018-04-11T00:39:55.649Z,100012.59
2018-04-11T00:42:21.674Z,100019.76
2018-04-11T00:44:47.638Z,100023.90
2018-04-11T00:47:13.587Z,100028.11
2018-04-11T00:49:39.542Z,100032.48
2018-04-11T00:52:05.484Z,100030.06
2018-04-11T00:54:31.434Z,100027.17
2018-04-11T00:56:57.447Z,100035.84
2018-04-11T00:59:23.401Z,100046.09
2018-04-11T01:01:49.428Z,100047.09
2018-04-11T01:04:15.410Z,100049.69
2018-04-11T01:06:41.352Z,100052.58
2018-04-11T01:09:07.321Z,100057.15
2018-04-11T01:11:33.299Z,100056.12
2018-04-11T01:13:59.255Z,100050.53
2018-04-11T01:16:25.229Z,100055.42
2018-04-11T01:18:51.192Z,100058.28
2018-04-11T01:21:17.136Z,100053.91
2018-04-11T01:23:43.075Z,100059.60
2018-04-11T01:26:09.012Z,100069.16
2018-04-11T01:28:34.957Z,100070.66
2018-04-11T01:31:00.916Z,100074.67
2018-04-11T01:33:26.870Z,100084.99
2018-04-11T01:35:52.804Z,100087.38
2018-04-11T01:38:18.747Z,100086.72
2018-04-11T01:40:44.727Z,100084.69
2018-04-11T01:43:10.671Z,100080.98
2018-04-11T01:45:36.609Z,100085.19
2018-04-11T01:48:02.568Z,100090.06
2018-04-11T01:50:28.620Z,100089.20
2018-04-11T01:52:55.156Z,100091.59
2018-04-11T01:55:21.096Z,100095.64
2018-04-11T01:57:47.054Z,100092.43
2018-04-11T02:00:12.995Z,100092.43
2018-04-11T02:02:38.956Z,100098.78
2018-04-11T02:05:04.914Z,100099.03
2018-04-11T02:07:30.855Z,100096.16
2018-04-11T02:09:56.820Z,100093.11
2018-04-11T02:12:22.777Z,100090.02
2018-04-11T02:14:48.720Z,100093.45
2018-04-11T02:17:14.663Z,100096.25
2018-04-11T02:19:40.603Z,100091.78
2018-04-11T02:22:06.560Z,100087.77
2018-04-11T02:24:32.507Z,100086.91
2018-04-11T02:26:58.472Z,100080.53
2018-04-11T02:29:24.412Z,100086.70
2018-04-11T02:31:50.391Z,100086.25
2018-04-11T02:34:16.336Z,100078.89
2018-04-11T02:36:42.279Z,100083.70
2018-04-11T02:39:08.223Z,100088.55
2018-04-11T02:41:34.167Z,100090.97
2018-04-11T02:44:00.144Z,100088.28
2018-04-11T02:46:26.083Z,100088.53
2018-04-11T02:48:52.044Z,100083.94
2018-04-11T02:51:18.064Z,100089.62
2018-04-11T02:53:44.020Z,100088.80
2018-04-11T02:56:09.963Z,100073.20
2018-04-11T02:58:35.933Z,100065.07
2018-04-11T03:01:01.893Z,100063.56
2018-04-11T03:03:27.861Z,100061.11
2018-04-11T03:05:53.820Z,100064.12
2018-04-11T03:08:19.761Z,100058.11
2018-04-11T03:10:45.699Z,100062.80
2018-04-11T03:13:11.644Z,100068.41
2018-04-11T03:15:37.581Z,100077.00
2018-04-11T03:18:03.539Z,100075.54
2018-04-11T03:20:29.477Z,100070.26
2018-04-11T03:22:55.450Z,100062.59
2018-04-11T03:25:21.395Z,100057.15
2018-04-11T03:27:47.331Z,100053.31
2018-04-11T03:30:13.275Z,100055.06
2018-04-11T03:32:39.228Z,100053.72
2018-04-11T03:35:05.204Z,100049.68
2018-04-11T03:37:31.148Z,100043.99
2018-04-11T03:39:57.095Z,100050.53
2018-04-11T03:42:23.115Z,100054.73
2018-04-11T03:44:49.052Z,100058.02
2018-04-11T03:47:14.987Z,100052.17
2018-04-11T03:49:40.928Z,100049.44
2018-04-11T03:52:06.887Z,100049.63
2018-04-11T03:54:32.831Z,100048.20
2018-04-11T03:56:58.793Z,100039.30
2018-04-11T03:59:24.740Z,100046.14
2018-04-11T04:01:50.725Z,100050.03
2018-04-11T04:04:16.677Z,100052.98
2018-04-11T04:06:42.633Z,100052.74
2018-04-11T04:09:08.588Z,100048.47
2018-04-11T04:11:34.528Z,100045.14
2018-04-11T04:14:00.491Z,100051.57
2018-04-11T04:16:26.456Z,100056.20
2018-04-11T04:18:52.407Z,100056.62
2018-04-11T04:21:18.344Z,100062.22
2018-04-11T04:23:44.281Z,100061.97
2018-04-11T04:26:10.217Z,100063.88
2018-04-11T04:28:36.160Z,100059.17
2018-04-11T04:31:02.098Z,100060.23
2018-04-11T04:33:28.083Z,100053.81
2018-04-11T04:35:54.039Z,100057.30
2018-04-11T04:38:19.985Z,100059.94
2018-04-11T04:40:45.929Z,100063.45
2018-04-11T04:43:11.879Z,100064.36
2018-04-11T04:45:37.839Z,100067.67
2018-04-11T04:48:03.801Z,100068.63
2018-04-11T04:50:29.740Z,100069.64
2018-04-11T04:52:55.697Z,100072.62
2018-04-11T04:55:21.645Z,100071.95
2018-04-11T04:57:47.651Z,100073.79
2018-04-11T05:00:13.608Z,100069.58
2018-04-11T05:02:39.564Z,100063.80
2018-04-11T05:05:05.515Z,100062.89
2018-04-11T05:07:31.479Z,100061.41
2018-04-11T05:09:57.423Z,100056.94
2018-04-11T05:12:23.384Z,100066.27
2018-04-11T05:14:49.360Z,100085.82
2018-04-11T05:17:15.313Z,100105.28
2018-04-11T05:19:41.356Z,100116.42
2018-04-11T05:22:07.306Z,100118.98
2018-04-11T05:24:33.257Z,100126.64
2018-04-11T05:26:59.200Z,100116.42
2018-04-11T05:29:25.155Z,100114.84
2018-04-11T05:31:51.100Z,100110.17
2018-04-11T05:34:17.052Z,100095.66
2018-04-11T05:36:43.012Z,100087.48
2018-04-11T05:39:08.965Z,100091.94
2018-04-11T05:41:34.909Z,100091.92
2018-04-11T05:44:00.847Z,100101.53
2018-04-11T05:46:26.896Z,100102.90
2018-04-11T05:48:52.839Z,100104.31
2018-04-11T05:51:18.792Z,100100.85
2018-04-11T05:53:44.727Z,100107.09
2018-04-11T05:56:10.685Z,100107.59
2018-04-11T05:58:36.636Z,100106.45
2018-04-11T06:01:02.617Z,100111.30
2018-04-11T06:03:28.565Z,100111.66
2018-04-11T06:05:54.519Z,100117.16
2018-04-11T06:08:20.489Z,100116.94
2018-04-11T06:10:46.432Z,100119.36
2018-04-11T06:13:12.378Z,100120.47
2018-04-11T06:15:38.312Z,100118.91
2018-04-11T06:18:04.268Z,100119.74
2018-04-11T06:20:30.284Z,100117.59
2018-04-11T06:22:56.290Z,100114.61
2018-04-11T06:25:22.213Z,100119.58
2018-04-11T06:27:48.154Z,100123.61
2018-04-11T06:30:14.083Z,100131.29
2018-04-11T06:32:40.120Z,100125.09
2018-04-11T06:35:06.110Z,100127.23
2018-04-11T06:37:32.040Z,100131.44
2018-04-11T06:39:58.009Z,100123.61
2018-04-11T06:42:24.011Z,100125.77
2018-04-11T06:44:50.000Z,100126.66
2018-04-11T06:47:15.981Z,100126.16
2018-04-11T06:49:41.896Z,100129.06
2018-04-11T06:52:07.869Z,100127.50
2018-04-11T06:54:33.808Z,100131.05
2018-04-11T06:56:59.755Z,100128.98
2018-04-11T06:59:25.754Z,100130.03
2018-04-11T07:01:51.663Z,100131.11
2018-04-11T07:04:17.609Z,100132.77
2018-04-11T07:06:43.637Z,100136.46
2018-04-11T07:09:09.629Z,100137.78
2018-04-11T07:11:35.563Z,100134.00
2018-04-11T07:14:01.510Z,100138.94
2018-04-11T07:16:27.448Z,100140.18
2018-04-11T07:18:53.449Z,100142.50
2018-04-11T07:21:19.499Z,100141.18
2018-04-11T07:23:45.468Z,100144.32
2018-04-11T07:26:11.407Z,100138.13
2018-04-11T07:28:37.364Z,100141.03
2018-04-11T07:31:03.391Z,100144.47
2018-04-11T07:33:29.413Z,100143.56
2018-04-11T07:35:55.439Z,100154.44
2018-04-11T07:38:21.472Z,100154.88
2018-04-11T07:40:47.444Z,100155.87
2018-04-11T07:43:13.398Z,100165.34
2018-04-11T07:45:39.348Z,100167.33
2018-04-11T07:48:05.387Z,100163.13
2018-04-11T07:50:31.412Z,100164.12
2018-04-11T07:52:57.443Z,100168.39
2018-04-11T07:55:23.390Z,100173.01
2018-04-11T07:57:49.395Z,100167.66
2018-04-11T08:00:15.416Z,100165.53
2018-04-11T08:02:41.455Z,100172.69
2018-04-11T08:05:07.395Z,100177.48
2018-04-11T08:07:33.360Z,100174.73
2018-04-11T08:09:59.360Z,100179.05
2018-04-11T08:12:25.252Z,100177.38
2018-04-11T08:14:51.219Z,100169.66
2018-04-11T08:17:17.157Z,100176.16
2018-04-11T08:19:43.130Z,100174.66
2018-04-11T08:22:09.090Z,100172.77
2018-04-11T08:24:35.025Z,100174.41
2018-04-11T08:27:01.036Z,100179.36
2018-04-11T08:29:27.004Z,100176.39
2018-04-11T08:31:52.992Z,100181.19
2018-04-11T08:34:18.934Z,100182.82
2018-04-11T08:36:44.935Z,100184.09
2018-04-11T08:39:10.926Z,100178.05
2018-04-11T08:41:36.876Z,100175.74
2018-04-11T08:44:02.829Z,100183.25
2018-04-11T08:46:28.763Z,100187.14
2018-04-11T08:48:54.707Z,100181.23
2018-04-11T08:51:20.676Z,100179.84
2018-04-11T08:53:46.733Z,100180.59
2018-04-11T08:56:12.770Z,100182.80
2018-04-11T08:58:38.715Z,100183.72
2018-04-11T09:01:04.668Z,100181.73
2018-04-11T09:03:30.648Z,100190.25
2018-04-11T09:05:56.665Z,100187.59
2018-04-11T09:08:22.614Z,100189.12
2018-04-11T09:10:48.565Z,100194.38
2018-04-11T09:13:14.563Z,100197.41
2018-04-11T09:15:40.529Z,100200.05
2018-04-11T09:18:06.472Z,100195.02
2018-04-11T09:20:32.422Z,100196.66
2018-04-11T09:22:58.376Z,100189.73
2018-04-11T09:25:24.329Z,100187.75
2018-04-11T09:27:50.268Z,100185.70
2018-04-11T09:30:16.215Z,100187.41
2018-04-11T09:32:42.184Z,100189.56
2018-04-11T09:35:08.132Z,100184.87
2018-04-11T09:37:34.128Z,100186.23
2018-04-11T09:40:00.104Z,100182.31
2018-04-11T09:42:26.037Z,100182.06
2018-04-11T09:44:51.999Z,100186.14
2018-04-11T09:47:17.952Z,100195.16
2018-04-11T09:49:43.920Z,100201.17
2018-04-11T09:52:09.856Z,100196.77
2018-04-11T09:54:35.825Z,100191.00
2018-04-11T09:57:01.780Z,100194.44
2018-04-11T09:59:27.728Z,100191.67
2018-04-11T10:01:53.675Z,100191.30
2018-04-11T10:04:19.612Z,100197.34
2018-04-11T10:06:45.572Z,100199.81
2018-04-11T10:09:11.508Z,100199.52
2018-04-11T10:11:37.468Z,100198.41
2018-04-11T10:14:03.433Z,100192.42
2018-04-11T10:16:29.414Z,100196.34
2018-04-11T10:18:55.400Z,100195.93
2018-04-11T10:21:21.361Z,100201.16
2018-04-11T10:23:47.321Z,100202.70
2018-04-11T10:26:13.269Z,100198.65
2018-04-11T10:28:39.299Z,100204.26
2018-04-11T10:31:05.256Z,100200.88
2018-04-11T10:33:31.205Z,100201.95
2018-04-11T10:35:57.143Z,100195.43
2018-04-11T10:38:23.080Z,100198.41
2018-04-11T10:40:49.060Z,100198.02
2018-04-11T10:43:15.085Z,100197.83
2018-04-11T10:45:41.177Z,100197.92
2018-04-11T10:48:07.281Z,100196.83
2018-04-11T10:50:33.223Z,100196.51
2018-04-11T10:52:59.173Z,100197.41
2018-04-11T10:55:25.122Z,100192.30
2018-04-11T10:57:51.091Z,100192.94
2018-04-11T11:00:17.048Z,100193.94
2018-04-11T11:02:43.001Z,100189.42
2018-04-11T11:05:09.040Z,100194.44
2018-04-11T11:07:35.005Z,100192.23
2018-04-11T11:10:00.960Z,100192.63
2018-04-11T11:12:26.895Z,100194.69
2018-04-11T11:14:52.832Z,100194.52
2018-04-11T11:17:18.805Z,100195.84
2018-04-11T11:19:44.755Z,100195.78
2018-04-11T11:22:10.706Z,100189.09
2018-04-11T11:24:36.644Z,100197.03
2018-04-11T11:27:02.616Z,100197.16
2018-04-11T11:29:28.573Z,100193.05
2018-04-11T11:31:54.516Z,100192.64
2018-04-11T11:34:20.468Z,100194.70
2018-04-11T11:36:46.411Z,100190.76
2018-04-11T11:39:12.398Z,100191.41
2018-04-11T11:41:38.441Z,100181.58
2018-04-11T11:44:04.377Z,100182.00
2018-04-11T11:46:30.335Z,100183.80
2018-04-11T11:48:56.305Z,100182.00
2018-04-11T11:51:22.263Z,100173.59
2018-04-11T11:53:48.239Z,100175.38
2018-04-11T11:56:15.229Z,100175.08
2018-04-11T11:58:41.173Z,100173.00
2018-04-11T12:01:07.133Z,100166.41
2018-04-11T12:03:33.086Z,100163.52
2018-04-11T12:05:59.104Z,100159.23
2018-04-11T12:08:25.045Z,100155.09
2018-04-11T12:10:50.976Z,100161.85
2018-04-11T12:13:16.941Z,100157.23
2018-04-11T12:15:42.902Z,100152.21
2018-04-11T12:18:08.864Z,100156.02
2018-04-11T12:20:34.809Z,100159.63
2018-04-11T12:23:00.747Z,100154.42
2018-04-11T12:25:26.696Z,100163.44
2018-04-11T12:27:52.648Z,100161.44
2018-04-11T12:30:18.601Z,100162.69
2018-04-11T12:32:44.537Z,100159.30
2018-04-11T12:35:10.513Z,100165.82
2018-04-11T12:37:36.460Z,100167.13
2018-04-11T12:40:02.413Z,100166.46
2018-04-11T12:42:28.364Z,100164.91
2018-04-11T12:44:54.329Z,100168.39
2018-04-11T12:47:20.291Z,100166.56
2018-04-11T12:49:46.260Z,100167.14
2018-04-11T12:52:12.265Z,100172.92
2018-04-11T12:54:38.204Z,100170.62
2018-04-11T12:57:04.162Z,100170.86
2018-04-11T12:59:30.105Z,100170.60
2018-04-11T13:01:56.056Z,100170.86
2018-04-11T13:04:22.016Z,100170.27
2018-04-11T13:06:47.972Z,100164.76
2018-04-11T13:09:13.940Z,100165.00
2018-04-11T13:11:39.876Z,100151.95
2018-04-11T13:14:05.836Z,100156.91
2018-04-11T13:16:31.784Z,100155.27
2018-04-11T13:18:57.722Z,100147.73
2018-04-11T13:21:23.770Z,100144.27
2018-04-11T13:23:49.716Z,100141.56
2018-04-11T13:26:15.681Z,100138.83
2018-04-11T13:28:41.696Z,100136.70
2018-04-11T13:31:07.645Z,100133.56
2018-04-11T13:33:33.591Z,100131.49
2018-04-11T13:35:59.602Z,100130.51
2018-04-11T13:38:25.568Z,100131.26
2018-04-11T13:40:51.528Z,100128.94
2018-04-11T13:43:17.475Z,100125.79
2018-04-11T13:45:43.428Z,100122.42
2018-04-11T13:48:09.376Z,100127.11
2018-04-11T13:50:35.340Z,100123.00
2018-04-11T13:53:01.312Z,100119.03
2018-04-11T13:55:27.275Z,100114.25
2018-04-11T13:57:53.350Z,100113.25
2018-04-11T14:00:19.296Z,100114.50
2018-04-11T14:02:45.240Z,100110.02
2018-04-11T14:05:11.188Z,100112.35
2018-04-11T14:07:37.153Z,100112.50
2018-04-11T14:10:03.101Z,100113.02
2018-04-11T14:12:29.056Z,100115.73
2018-04-11T14:14:54.999Z,100113.17
2018-04-11T14:17:20.968Z,100115.05
2018-04-11T14:19:46.960Z,100122.91
2018-04-11T14:22:12.863Z,100119.53
2018-04-11T14:24:38.853Z,100114.58
2018-04-11T14:27:04.819Z,100119.36
2018-04-11T14:29:30.776Z,100117.63
2018-04-11T14:31:56.731Z,100119.94
2018-04-11T14:34:22.680Z,100119.59
2018-04-11T14:36:48.625Z,100115.06
2018-04-11T14:39:14.583Z,100114.91
2018-04-11T14:41:40.551Z,100110.84
2018-04-11T14:44:06.500Z,100112.26
2018-04-11T14:46:32.456Z,100107.12
2018-04-11T14:48:58.400Z,100108.22
2018-04-11T14:51:24.425Z,100111.33
2018-04-11T14:53:50.374Z,100106.91
2018-04-11T14:56:16.339Z,100107.38
2018-04-11T14:58:42.298Z,100100.42
2018-04-11T15:01:08.276Z,100101.05
2018-04-11T15:03:34.226Z,100104.48
2018-04-11T15:06:00.160Z,100103.02
2018-04-11T15:08:26.126Z,100101.65
2018-04-11T15:10:52.084Z,100093.41
2018-04-11T15:13:18.056Z,100088.79
2018-04-11T15:15:44.013Z,100083.42
2018-04-11T15:18:09.955Z,100077.26
2018-04-11T15:20:35.887Z,100074.81
2018-04-11T15:23:01.845Z,100079.30
2018-04-11T15:25:27.909Z,100076.76
2018-04-11T15:27:53.852Z,100074.02
2018-04-11T15:30:19.823Z,100074.67
2018-04-11T15:32:45.851Z,100078.33
2018-04-11T15:35:11.801Z,100076.52
2018-04-11T15:37:37.750Z,100078.03
2018-04-11T15:40:03.771Z,100078.41
2018-04-11T15:42:29.792Z,100074.09
2018-04-11T15:44:56.739Z,100068.02
2018-04-11T15:47:22.713Z,100075.27
2018-04-11T15:49:48.661Z,100073.61
2018-04-11T15:52:14.607Z,100069.33
2018-04-11T15:54:40.576Z,100066.61
2018-04-11T15:57:06.520Z,100064.77
2018-04-11T15:59:32.473Z,100059.79
2018-04-11T16:01:58.436Z,100057.63
2018-04-11T16:04:24.373Z,100056.41
2018-04-11T16:06:50.341Z,100051.58
2018-04-11T16:09:16.316Z,100050.12
2018-04-11T16:11:42.268Z,100049.19
2018-04-11T16:14:08.232Z,100050.87
2018-04-11T16:16:34.180Z,100055.22
2018-04-11T16:19:00.125Z,100050.67
2018-04-11T16:21:26.173Z,100054.57
2018-04-11T16:23:52.119Z,100054.57
2018-04-11T16:26:18.101Z,100049.02
2018-04-11T16:28:44.060Z,100048.62
2018-04-11T16:31:09.992Z,100050.03
2018-04-11T16:33:35.941Z,100041.95
2018-04-11T16:36:02.029Z,100036.02
2018-04-11T16:38:28.017Z,100038.73
2018-04-11T16:40:53.959Z,100038.22
2018-04-11T16:43:20.015Z,100038.67
2018-04-11T16:45:45.960Z,100035.90
2018-04-11T16:48:11.945Z,100029.93
2018-04-11T16:50:37.888Z,100026.52
2018-04-11T16:53:03.891Z,100026.45
2018-04-11T16:55:29.913Z,100026.54
2018-04-11T16:57:55.886Z,100021.92
2018-04-11T17:00:21.897Z,100024.14
2018-04-11T17:02:47.832Z,100021.98
2018-04-11T17:05:13.784Z,100018.85
2018-04-11T17:07:39.729Z,100026.36
2018-04-11T17:10:05.703Z,100021.08
2018-04-11T17:12:31.660Z,100018.37
2018-04-11T17:14:57.602Z,100011.17
2018-04-11T17:17:23.552Z,100009.35
2018-04-11T17:19:49.498Z,100009.22
2018-04-11T17:22:15.478Z,100010.34
2018-04-11T17:24:41.436Z,100013.20
2018-04-11T17:27:07.422Z,100014.41
2018-04-11T17:29:33.369Z,100011.98
2018-04-11T17:31:59.311Z,100013.30
2018-04-11T17:34:25.248Z,100006.80
2018-04-11T17:36:51.240Z,100013.08
2018-04-11T17:39:17.205Z,100007.90
2018-04-11T17:41:43.152Z,100018.58
2018-04-11T17:44:09.121Z,100009.50
2018-04-11T17:46:35.067Z,100012.14
2018-04-11T17:49:01.029Z,100015.31
2018-04-11T17:51:27.037Z,100015.46
2018-04-11T17:53:52.928Z,100013.90
2018-04-11T17:56:18.934Z,100018.73
2018-04-11T17:58:44.884Z,100017.55
2018-04-11T18:01:10.832Z,100018.11
2018-04-11T18:03:36.816Z,100020.91
2018-04-11T18:06:02.919Z,100020.44
2018-04-11T18:08:28.869Z,100020.91
2018-04-11T18:10:54.824Z,100015.78
2018-04-11T18:13:20.776Z,100022.01
2018-04-11T18:15:46.719Z,100018.98
2018-04-11T18:18:12.697Z,100014.50
2018-04-11T18:20:38.647Z,100016.34
2018-04-11T18:23:04.620Z,100019.17
2018-04-11T18:25:30.565Z,100015.94
2018-04-11T18:27:56.549Z,100019.69
2018-04-11T18:30:22.505Z,100009.94
2018-04-11T18:32:48.443Z,100015.81
2018-04-11T18:35:14.408Z,100012.27
2018-04-11T18:37:40.352Z,100007.40
2018-04-11T18:40:06.301Z,100008.53
2018-04-11T18:42:32.241Z,100011.77
2018-04-11T18:44:58.197Z,100014.25
2018-04-11T18:47:24.160Z,100014.41
2018-04-11T18:49:50.123Z,100017.87
2018-04-11T18:52:16.082Z,100014.00
2018-04-11T18:54:42.080Z,100020.35
2018-04-11T18:57:08.028Z,100023.24
2018-04-11T18:59:33.994Z,100025.20
2018-04-11T19:01:59.946Z,100019.49
2018-04-11T19:04:25.898Z,100028.77
2018-04-11T19:06:51.862Z,100030.81
2018-04-11T19:09:17.804Z,100031.53
2018-04-11T19:11:43.760Z,100031.13
2018-04-11T19:14:09.737Z,100029.27
2018-04-11T19:16:35.677Z,100032.73
2018-04-11T19:19:01.656Z,100038.55
2018-04-11T19:21:27.607Z,100035.17
2018-04-11T19:23:53.556Z,100038.30
2018-04-11T19:26:19.508Z,100036.72
2018-04-11T19:28:45.457Z,100034.59
2018-04-11T19:31:11.460Z,100034.77
2018-04-11T19:33:37.381Z,100024.18
2018-04-11T19:36:03.357Z,100023.02
2018-04-11T19:38:29.306Z,100024.91
2018-04-11T19:40:55.280Z,100024.34
2018-04-11T19:43:21.240Z,100019.40
2018-04-11T19:45:47.229Z,100028.09
2018-04-11T19:48:13.400Z,100018.09
2018-04-11T19:50:39.399Z,100016.94
2018-04-11T19:53:05.429Z,100012.81
2018-04-11T19:55:31.396Z,100010.56
2018-04-11T19:57:57.413Z,100008.98
2018-04-11T20:00:23.401Z,100007.20
2018-04-11T20:02:49.348Z,100007.73
2018-04-11T20:05:15.345Z,100005.19
2018-04-11T20:07:41.319Z,100007.36
2018-04-11T20:10:07.284Z,100005.38
2018-04-11T20:12:33.261Z,100000.50
2018-04-11T20:14:59.192Z,100011.00
2018-04-11T20:17:25.152Z,100007.01
2018-04-11T20:19:51.109Z,100009.59
2018-04-11T20:22:17.079Z,99998.17
2018-04-11T20:24:43.033Z,99993.05
2018-04-11T20:27:09.009Z,100003.11
2018-04-11T20:29:34.963Z,100006.76
2018-04-11T20:32:00.920Z,100002.26
2018-04-11T20:34:26.870Z,100005.75
2018-04-11T20:36:52.864Z,100008.92
2018-04-11T20:39:18.843Z,100005.88
2018-04-11T20:41:44.781Z,100006.37
2018-04-11T20:44:10.848Z,100003.14
2018-04-11T20:46:36.797Z,99996.09
2018-04-11T20:49:02.733Z,99997.10
2018-04-11T20:51:28.712Z,99990.97
2018-04-11T20:53:54.744Z,99986.70
2018-04-11T20:56:20.684Z,99981.16
2018-04-11T20:58:46.632Z,99981.09
2018-04-11T21:01:12.602Z,99980.91
2018-04-11T21:03:38.535Z,99974.96
2018-04-11T21:06:04.505Z,99973.23
2018-04-11T21:08:30.420Z,99973.08
2018-04-11T21:10:56.384Z,99960.19
2018-04-11T21:13:22.333Z,99965.00
2018-04-11T21:15:48.298Z,99957.33
2018-04-11T21:18:14.472Z,99963.11
2018-04-11T21:20:40.431Z,99962.86
2018-04-11T21:23:06.475Z,99958.23
2018-04-11T21:25:32.514Z,99957.11
2018-04-11T21:27:58.556Z,99955.09
2018-04-11T21:30:24.579Z,99950.88
2018-04-11T21:32:50.619Z,99950.38
2018-04-11T21:35:16.584Z,99940.56
2018-04-11T21:37:42.556Z,99933.88
2018-04-11T21:40:08.528Z,99930.16
2018-04-11T21:42:34.475Z,99930.81
2018-04-11T21:45:00.443Z,99923.95
2018-04-11T21:47:26.401Z,99926.30
2018-04-11T21:49:52.366Z,99929.18
2018-04-11T21:52:18.300Z,99925.03
2018-04-11T21:54:44.264Z,99921.52
2018-04-11T21:57:10.209Z,99918.53
2018-04-11T21:59:36.179Z,99919.78
2018-04-11T22:02:02.162Z,99920.34
2018-04-11T22:04:28.096Z,99915.88
2018-04-11T22:06:54.072Z,99916.13
2018-04-11T22:09:20.024Z,99912.56
2018-04-11T22:11:45.989Z,99909.98
2018-04-11T22:14:11.944Z,99911.00
2018-04-11T22:16:37.988Z,99907.70
2018-04-11T22:19:03.936Z,99901.50
2018-04-11T22:21:29.895Z,99897.80
2018-04-11T22:23:55.833Z,99896.88
2018-04-11T22:26:21.815Z,99901.75
2018-04-11T22:28:47.764Z,99903.39
2018-04-11T22:31:13.742Z,99893.52
2018-04-11T22:33:39.676Z,99891.13
2018-04-11T22:36:05.631Z,99889.41
2018-04-11T22:38:31.593Z,99883.62
2018-04-11T22:40:57.586Z,99885.21
2018-04-11T22:43:23.556Z,99886.66
2018-04-11T22:45:49.487Z,99880.22
2018-04-11T22:48:15.451Z,99879.97
2018-04-11T22:50:41.473Z,99886.00
2018-04-11T22:53:07.423Z,99881.05
2018-04-11T22:55:33.412Z,99874.32
2018-04-11T22:57:59.340Z,99874.22
2018-04-11T23:00:25.308Z,99867.88
2018-04-11T23:02:51.259Z,99869.10
2018-04-11T23:05:17.211Z,99864.42
2018-04-11T23:07:43.156Z,99861.02
2018-04-11T23:10:09.117Z,99855.65
2018-04-11T23:12:35.061Z,99859.61
2018-04-11T23:15:00.999Z,99868.19
2018-04-11T23:17:26.947Z,99862.91
2018-04-11T23:19:52.913Z,99860.52
2018-04-11T23:22:18.843Z,99857.56
2018-04-11T23:24:44.784Z,99853.17
2018-04-11T23:27:10.729Z,99856.66
2018-04-11T23:29:36.701Z,99852.27
2018-04-11T23:32:02.640Z,99854.66
2018-04-11T23:34:28.584Z,99849.72
2018-04-11T23:36:54.659Z,99846.83
2018-04-11T23:39:20.615Z,99851.22
2018-04-11T23:41:46.555Z,99848.65
2018-04-11T23:44:12.501Z,99848.99
2018-04-11T23:46:38.440Z,99844.62
2018-04-11T23:49:04.400Z,99843.31
2018-04-11T23:51:30.436Z,99844.44
2018-04-11T23:53:56.393Z,99841.80
2018-04-11T23:56:22.339Z,99843.38
2018-04-11T23:58:48.340Z,99829.92
